sensor_id;sensor_type;location;lat;lon;timestamp;P1;durP1;ratioP1;P2;durP2;ratioP2
19609;SDS011;9952;47.122;-1.638;2022-12-10T00:00:42;36.90;;;16.73;;
19609;SDS011;9952;47.122;-1.638;2022-12-10T00:05:23;28.37;;;16.13;;
19609;SDS011;9952;47.122;-1.638;2022-12-10T00:10:03;31.43;;;16.77;;
19609;SDS011;9952;47.122;-1.638;2022-12-10T00:14:44;39.83;;;17.67;;
19609;SDS011;9952;47.122;-1.638;2022-12-10T00:19:25;45.23;;;22.47;;
19609;SDS011;9952;47.122;-1.638;2022-12-10T00:24:06;37.00;;;21.10;;
19609;SDS011;9952;47.122;-1.638;2022-12-10T00:28:48;38.47;;;19.33;;
19609;SDS011;9952;47.122;-1.638;2022-12-10T00:33:29;38.23;;;19.30;;
19609;SDS011;9952;47.122;-1.638;2022-12-10T00:38:10;41.40;;;20.93;;
19609;SDS011;9952;47.122;-1.638;2022-12-10T00:42:51;46.63;;;22.10;;
19609;SDS011;9952;47.122;-1.638;2022-12-10T00:47:32;54.40;;;24.83;;
19609;SDS011;9952;47.122;-1.638;2022-12-10T00:52:14;51.73;;;24.37;;
19609;SDS011;9952;47.122;-1.638;2022-12-10T00:56:54;51.87;;;24.80;;
19609;SDS011;9952;47.122;-1.638;2022-12-10T01:01:37;62.40;;;28.20;;
19609;SDS011;9952;47.122;-1.638;2022-12-10T01:06:26;72.73;;;31.57;;
19609;SDS011;9952;47.122;-1.638;2022-12-10T01:11:11;73.70;;;29.80;;
19609;SDS011;9952;47.122;-1.638;2022-12-10T01:15:53;69.27;;;28.77;;
19609;SDS011;9952;47.122;-1.638;2022-12-10T01:20:35;60.97;;;27.43;;
19609;SDS011;9952;47.122;-1.638;2022-12-10T01:25:16;57.43;;;26.57;;
19609;SDS011;9952;47.122;-1.638;2022-12-10T01:29:58;57.53;;;26.03;;
19609;SDS011;9952;47.122;-1.638;2022-12-10T01:34:38;54.03;;;26.07;;
19609;SDS011;9952;47.122;-1.638;2022-12-10T01:39:20;57.03;;;25.90;;
19609;SDS011;9952;47.122;-1.638;2022-12-10T01:44:03;57.43;;;25.57;;
19609;SDS011;9952;47.122;-1.638;2022-12-10T01:48:48;44.23;;;21.30;;
19609;SDS011;9952;47.122;-1.638;2022-12-10T01:53:29;42.07;;;20.40;;
19609;SDS011;9952;47.122;-1.638;2022-12-10T01:58:11;46.10;;;20.13;;
19609;SDS011;9952;47.122;-1.638;2022-12-10T02:03:05;39.60;;;19.53;;
19609;SDS011;9952;47.122;-1.638;2022-12-10T02:22:14;34.77;;;18.50;;
19609;SDS011;9952;47.122;-1.638;2022-12-10T02:27:03;33.97;;;18.07;;
19609;SDS011;9952;47.122;-1.638;2022-12-10T02:32:02;34.00;;;16.90;;
19609;SDS011;9952;47.122;-1.638;2022-12-10T02:36:49;33.87;;;18.53;;
19609;SDS011;9952;47.122;-1.638;2022-12-10T02:41:34;33.30;;;18.17;;
19609;SDS011;9952;47.122;-1.638;2022-12-10T02:46:17;39.97;;;18.07;;
19609;SDS011;9952;47.122;-1.638;2022-12-10T02:50:59;36.07;;;16.73;;
19609;SDS011;9952;47.122;-1.638;2022-12-10T02:55:49;35.17;;;17.53;;
19609;SDS011;9952;47.122;-1.638;2022-12-10T03:00:59;44.87;;;20.40;;
19609;SDS011;9952;47.122;-1.638;2022-12-10T03:15:52;60.47;;;25.30;;
19609;SDS011;9952;47.122;-1.638;2022-12-10T03:20:37;57.60;;;25.07;;
19609;SDS011;9952;47.122;-1.638;2022-12-10T03:25:23;69.00;;;26.60;;
19609;SDS011;9952;47.122;-1.638;2022-12-10T03:30:07;53.10;;;22.87;;
19609;SDS011;9952;47.122;-1.638;2022-12-10T03:34:49;58.47;;;26.03;;
19609;SDS011;9952;47.122;-1.638;2022-12-10T03:39:33;57.67;;;25.33;;
19609;SDS011;9952;47.122;-1.638;2022-12-10T03:44:17;79.63;;;30.57;;
19609;SDS011;9952;47.122;-1.638;2022-12-10T03:49:18;96.03;;;35.13;;
19609;SDS011;9952;47.122;-1.638;2022-12-10T03:53:59;51.30;;;24.47;;
19609;SDS011;9952;47.122;-1.638;2022-12-10T03:58:39;62.93;;;27.10;;
19609;SDS011;9952;47.122;-1.638;2022-12-10T04:03:20;60.90;;;24.80;;
19609;SDS011;9952;47.122;-1.638;2022-12-10T04:08:01;71.03;;;25.90;;
19609;SDS011;9952;47.122;-1.638;2022-12-10T04:12:42;61.60;;;26.00;;
19609;SDS011;9952;47.122;-1.638;2022-12-10T04:17:22;51.40;;;22.57;;
19609;SDS011;9952;47.122;-1.638;2022-12-10T04:22:03;47.43;;;22.53;;
19609;SDS011;9952;47.122;-1.638;2022-12-10T04:27:05;36.87;;;18.43;;
19609;SDS011;9952;47.122;-1.638;2022-12-10T04:31:48;46.33;;;20.47;;
19609;SDS011;9952;47.122;-1.638;2022-12-10T04:36:29;40.37;;;20.50;;
19609;SDS011;9952;47.122;-1.638;2022-12-10T04:41:10;48.23;;;22.67;;
19609;SDS011;9952;47.122;-1.638;2022-12-10T04:45:55;44.87;;;21.37;;
19609;SDS011;9952;47.122;-1.638;2022-12-10T04:50:36;43.90;;;20.20;;
19609;SDS011;9952;47.122;-1.638;2022-12-10T04:55:17;41.90;;;20.07;;
19609;SDS011;9952;47.122;-1.638;2022-12-10T04:59:58;41.37;;;20.73;;
19609;SDS011;9952;47.122;-1.638;2022-12-10T05:04:38;43.27;;;19.90;;
19609;SDS011;9952;47.122;-1.638;2022-12-10T05:09:19;45.63;;;20.47;;
19609;SDS011;9952;47.122;-1.638;2022-12-10T05:14:00;42.73;;;20.57;;
19609;SDS011;9952;47.122;-1.638;2022-12-10T05:18:41;40.67;;;19.40;;
19609;SDS011;9952;47.122;-1.638;2022-12-10T05:23:22;42.77;;;19.83;;
19609;SDS011;9952;47.122;-1.638;2022-12-10T05:28:09;41.40;;;18.77;;
19609;SDS011;9952;47.122;-1.638;2022-12-10T05:32:50;37.70;;;19.23;;
19609;SDS011;9952;47.122;-1.638;2022-12-10T05:37:31;39.33;;;19.07;;
19609;SDS011;9952;47.122;-1.638;2022-12-10T05:42:11;42.83;;;19.50;;
19609;SDS011;9952;47.122;-1.638;2022-12-10T05:46:52;44.23;;;19.00;;
19609;SDS011;9952;47.122;-1.638;2022-12-10T05:51:34;35.83;;;18.10;;
19609;SDS011;9952;47.122;-1.638;2022-12-10T05:56:17;38.80;;;18.77;;
19609;SDS011;9952;47.122;-1.638;2022-12-10T06:00:59;40.67;;;19.10;;
19609;SDS011;9952;47.122;-1.638;2022-12-10T06:05:46;40.07;;;20.27;;
19609;SDS011;9952;47.122;-1.638;2022-12-10T06:10:27;41.73;;;19.73;;
19609;SDS011;9952;47.122;-1.638;2022-12-10T06:15:07;39.20;;;19.90;;
19609;SDS011;9952;47.122;-1.638;2022-12-10T06:19:49;38.37;;;19.73;;
19609;SDS011;9952;47.122;-1.638;2022-12-10T06:24:29;37.47;;;18.83;;
19609;SDS011;9952;47.122;-1.638;2022-12-10T06:29:10;45.07;;;20.53;;
19609;SDS011;9952;47.122;-1.638;2022-12-10T06:33:51;43.17;;;19.73;;
19609;SDS011;9952;47.122;-1.638;2022-12-10T06:38:33;38.80;;;18.70;;
19609;SDS011;9952;47.122;-1.638;2022-12-10T06:43:14;39.03;;;18.87;;
19609;SDS011;9952;47.122;-1.638;2022-12-10T06:47:55;39.27;;;19.33;;
19609;SDS011;9952;47.122;-1.638;2022-12-10T06:52:36;41.33;;;20.13;;
19609;SDS011;9952;47.122;-1.638;2022-12-10T06:57:17;37.53;;;18.50;;
19609;SDS011;9952;47.122;-1.638;2022-12-10T07:01:57;43.50;;;19.47;;
19609;SDS011;9952;47.122;-1.638;2022-12-10T07:06:38;37.43;;;17.87;;
19609;SDS011;9952;47.122;-1.638;2022-12-10T07:11:20;38.03;;;18.07;;
19609;SDS011;9952;47.122;-1.638;2022-12-10T07:16:03;37.53;;;18.77;;
19609;SDS011;9952;47.122;-1.638;2022-12-10T07:20:52;42.93;;;20.60;;
19609;SDS011;9952;47.122;-1.638;2022-12-10T07:25:33;38.70;;;19.27;;
19609;SDS011;9952;47.122;-1.638;2022-12-10T07:30:14;40.37;;;18.20;;
19609;SDS011;9952;47.122;-1.638;2022-12-10T07:34:55;39.13;;;18.67;;
19609;SDS011;9952;47.122;-1.638;2022-12-10T07:39:35;38.70;;;17.77;;
19609;SDS011;9952;47.122;-1.638;2022-12-10T07:44:16;38.67;;;19.20;;
19609;SDS011;9952;47.122;-1.638;2022-12-10T07:49:00;42.33;;;19.20;;
19609;SDS011;9952;47.122;-1.638;2022-12-10T07:53:41;48.43;;;22.43;;
19609;SDS011;9952;47.122;-1.638;2022-12-10T07:58:23;45.30;;;21.10;;
19609;SDS011;9952;47.122;-1.638;2022-12-10T08:03:04;53.37;;;23.57;;
19609;SDS011;9952;47.122;-1.638;2022-12-10T08:07:45;52.50;;;25.27;;
19609;SDS011;9952;47.122;-1.638;2022-12-10T08:12:26;60.87;;;33.03;;
19609;SDS011;9952;47.122;-1.638;2022-12-10T08:17:06;53.60;;;25.97;;
19609;SDS011;9952;47.122;-1.638;2022-12-10T08:21:47;53.83;;;25.73;;
19609;SDS011;9952;47.122;-1.638;2022-12-10T08:26:29;53.40;;;26.37;;
19609;SDS011;9952;47.122;-1.638;2022-12-10T08:31:12;50.23;;;22.70;;
19609;SDS011;9952;47.122;-1.638;2022-12-10T08:35:58;47.13;;;23.93;;
19609;SDS011;9952;47.122;-1.638;2022-12-10T08:40:41;53.77;;;24.63;;
19609;SDS011;9952;47.122;-1.638;2022-12-10T08:45:22;56.13;;;25.17;;
19609;SDS011;9952;47.122;-1.638;2022-12-10T08:50:03;48.77;;;25.90;;
19609;SDS011;9952;47.122;-1.638;2022-12-10T08:54:44;48.93;;;22.73;;
19609;SDS011;9952;47.122;-1.638;2022-12-10T08:59:25;78.63;;;34.40;;
19609;SDS011;9952;47.122;-1.638;2022-12-10T09:04:06;59.10;;;27.20;;
19609;SDS011;9952;47.122;-1.638;2022-12-10T09:08:47;53.57;;;24.77;;
19609;SDS011;9952;47.122;-1.638;2022-12-10T09:13:27;45.87;;;23.60;;
19609;SDS011;9952;47.122;-1.638;2022-12-10T09:18:08;61.83;;;27.60;;
19609;SDS011;9952;47.122;-1.638;2022-12-10T09:22:49;59.87;;;28.47;;
19609;SDS011;9952;47.122;-1.638;2022-12-10T09:27:30;60.37;;;28.83;;
19609;SDS011;9952;47.122;-1.638;2022-12-10T09:32:11;63.70;;;30.63;;
19609;SDS011;9952;47.122;-1.638;2022-12-10T09:36:51;69.23;;;33.97;;
19609;SDS011;9952;47.122;-1.638;2022-12-10T09:46:38;71.27;;;31.17;;
19609;SDS011;9952;47.122;-1.638;2022-12-10T09:51:25;67.23;;;31.33;;
19609;SDS011;9952;47.122;-1.638;2022-12-10T09:56:14;60.70;;;29.63;;
19609;SDS011;9952;47.122;-1.638;2022-12-10T10:01:04;60.13;;;28.67;;
19609;SDS011;9952;47.122;-1.638;2022-12-10T10:05:46;62.40;;;29.80;;
19609;SDS011;9952;47.122;-1.638;2022-12-10T10:10:33;62.50;;;30.80;;
19609;SDS011;9952;47.122;-1.638;2022-12-10T10:15:18;60.03;;;30.30;;
19609;SDS011;9952;47.122;-1.638;2022-12-10T10:20:04;62.40;;;30.33;;
19609;SDS011;9952;47.122;-1.638;2022-12-10T10:24:46;74.87;;;36.03;;
19609;SDS011;9952;47.122;-1.638;2022-12-10T10:29:27;62.53;;;31.23;;
19609;SDS011;9952;47.122;-1.638;2022-12-10T10:34:26;56.57;;;28.03;;
19609;SDS011;9952;47.122;-1.638;2022-12-10T10:39:08;48.63;;;26.27;;
19609;SDS011;9952;47.122;-1.638;2022-12-10T10:43:54;49.87;;;23.70;;
19609;SDS011;9952;47.122;-1.638;2022-12-10T10:48:41;39.27;;;23.57;;
19609;SDS011;9952;47.122;-1.638;2022-12-10T10:53:26;43.70;;;23.60;;
19609;SDS011;9952;47.122;-1.638;2022-12-10T10:58:16;42.03;;;23.40;;
19609;SDS011;9952;47.122;-1.638;2022-12-10T11:02:59;43.57;;;24.13;;
19609;SDS011;9952;47.122;-1.638;2022-12-10T11:07:39;44.23;;;23.00;;
19609;SDS011;9952;47.122;-1.638;2022-12-10T11:17:18;38.67;;;21.37;;
19609;SDS011;9952;47.122;-1.638;2022-12-10T11:37:34;39.13;;;20.93;;
19609;SDS011;9952;47.122;-1.638;2022-12-10T11:47:29;33.40;;;18.97;;
19609;SDS011;9952;47.122;-1.638;2022-12-10T11:52:34;33.13;;;18.30;;
19609;SDS011;9952;47.122;-1.638;2022-12-10T12:02:51;28.93;;;14.50;;
19609;SDS011;9952;47.122;-1.638;2022-12-10T12:13:07;20.67;;;10.47;;
19609;SDS011;9952;47.122;-1.638;2022-12-10T12:18:00;12.27;;;5.43;;
19609;SDS011;9952;47.122;-1.638;2022-12-10T12:22:47;25.27;;;12.53;;
19609;SDS011;9952;47.122;-1.638;2022-12-10T12:27:40;25.03;;;13.37;;
19609;SDS011;9952;47.122;-1.638;2022-12-10T12:32:31;23.97;;;13.43;;
19609;SDS011;9952;47.122;-1.638;2022-12-10T12:38:21;22.10;;;12.67;;
19609;SDS011;9952;47.122;-1.638;2022-12-10T12:42:42;15.47;;;9.50;;
19609;SDS011;9952;47.122;-1.638;2022-12-10T12:47:34;11.37;;;7.20;;
19609;SDS011;9952;47.122;-1.638;2022-12-10T12:52:29;15.23;;;8.17;;
19609;SDS011;9952;47.122;-1.638;2022-12-10T12:57:40;18.20;;;9.67;;
19609;SDS011;9952;47.122;-1.638;2022-12-10T13:13:07;19.03;;;11.27;;
19609;SDS011;9952;47.122;-1.638;2022-12-10T13:23:27;20.17;;;11.00;;
19609;SDS011;9952;47.122;-1.638;2022-12-10T13:33:16;17.13;;;9.80;;
19609;SDS011;9952;47.122;-1.638;2022-12-10T13:38:15;16.40;;;9.43;;
19609;SDS011;9952;47.122;-1.638;2022-12-10T13:48:33;21.00;;;10.93;;
19609;SDS011;9952;47.122;-1.638;2022-12-10T14:03:06;21.57;;;12.33;;
19609;SDS011;9952;47.122;-1.638;2022-12-10T14:07:50;24.87;;;13.77;;
19609;SDS011;9952;47.122;-1.638;2022-12-10T14:12:37;20.50;;;12.80;;
19609;SDS011;9952;47.122;-1.638;2022-12-10T14:17:22;21.67;;;13.30;;
19609;SDS011;9952;47.122;-1.638;2022-12-10T14:22:16;19.70;;;12.03;;
19609;SDS011;9952;47.122;-1.638;2022-12-10T14:27:12;26.53;;;14.53;;
19609;SDS011;9952;47.122;-1.638;2022-12-10T14:31:55;20.23;;;11.40;;
19609;SDS011;9952;47.122;-1.638;2022-12-10T14:36:44;20.63;;;12.37;;
19609;SDS011;9952;47.122;-1.638;2022-12-10T14:41:30;15.70;;;9.60;;
19609;SDS011;9952;47.122;-1.638;2022-12-10T14:46:22;12.90;;;8.10;;
19609;SDS011;9952;47.122;-1.638;2022-12-10T14:51:15;15.20;;;9.63;;
19609;SDS011;9952;47.122;-1.638;2022-12-10T14:56:00;15.87;;;9.20;;
19609;SDS011;9952;47.122;-1.638;2022-12-10T15:00:43;14.30;;;9.50;;
19609;SDS011;9952;47.122;-1.638;2022-12-10T15:05:29;22.43;;;13.73;;
19609;SDS011;9952;47.122;-1.638;2022-12-10T15:21:44;14.57;;;7.87;;
19609;SDS011;9952;47.122;-1.638;2022-12-10T15:26:28;13.43;;;8.23;;
19609;SDS011;9952;47.122;-1.638;2022-12-10T15:42:49;15.03;;;8.40;;
19609;SDS011;9952;47.122;-1.638;2022-12-10T15:47:32;12.53;;;8.40;;
19609;SDS011;9952;47.122;-1.638;2022-12-10T15:52:47;16.53;;;8.63;;
19609;SDS011;9952;47.122;-1.638;2022-12-10T16:08:35;73.17;;;23.80;;
19609;SDS011;9952;47.122;-1.638;2022-12-10T16:13:17;15.40;;;8.53;;
19609;SDS011;9952;47.122;-1.638;2022-12-10T16:18:00;11.50;;;7.83;;
19609;SDS011;9952;47.122;-1.638;2022-12-10T16:22:40;13.53;;;7.00;;
19609;SDS011;9952;47.122;-1.638;2022-12-10T16:56:50;18.50;;;8.77;;
19609;SDS011;9952;47.122;-1.638;2022-12-10T17:30:01;26.73;;;13.20;;
19609;SDS011;9952;47.122;-1.638;2022-12-10T17:34:45;29.87;;;13.27;;
19609;SDS011;9952;47.122;-1.638;2022-12-10T17:39:26;28.37;;;13.70;;
19609;SDS011;9952;47.122;-1.638;2022-12-10T17:44:08;21.87;;;10.50;;
19609;SDS011;9952;47.122;-1.638;2022-12-10T17:48:49;20.03;;;9.50;;
19609;SDS011;9952;47.122;-1.638;2022-12-10T17:53:31;39.93;;;16.73;;
19609;SDS011;9952;47.122;-1.638;2022-12-10T17:58:12;16.93;;;8.80;;
19609;SDS011;9952;47.122;-1.638;2022-12-10T18:02:53;17.17;;;8.60;;
19609;SDS011;9952;47.122;-1.638;2022-12-10T18:07:34;13.83;;;7.60;;
19609;SDS011;9952;47.122;-1.638;2022-12-10T18:12:14;16.60;;;7.97;;
19609;SDS011;9952;47.122;-1.638;2022-12-10T18:16:55;17.50;;;7.67;;
19609;SDS011;9952;47.122;-1.638;2022-12-10T18:21:36;13.07;;;7.23;;
19609;SDS011;9952;47.122;-1.638;2022-12-10T18:26:18;12.97;;;7.53;;
19609;SDS011;9952;47.122;-1.638;2022-12-10T18:31:02;16.00;;;8.30;;
19609;SDS011;9952;47.122;-1.638;2022-12-10T18:35:43;14.47;;;8.33;;
19609;SDS011;9952;47.122;-1.638;2022-12-10T18:40:24;16.10;;;8.43;;
19609;SDS011;9952;47.122;-1.638;2022-12-10T18:45:05;16.70;;;8.40;;
19609;SDS011;9952;47.122;-1.638;2022-12-10T18:49:46;14.63;;;7.63;;
19609;SDS011;9952;47.122;-1.638;2022-12-10T18:54:26;18.50;;;8.47;;
19609;SDS011;9952;47.122;-1.638;2022-12-10T18:59:25;14.97;;;8.60;;
19609;SDS011;9952;47.122;-1.638;2022-12-10T19:04:06;14.30;;;8.80;;
19609;SDS011;9952;47.122;-1.638;2022-12-10T19:08:48;17.97;;;8.67;;
19609;SDS011;9952;47.122;-1.638;2022-12-10T19:13:29;15.67;;;9.53;;
19609;SDS011;9952;47.122;-1.638;2022-12-10T19:18:10;16.13;;;9.07;;
19609;SDS011;9952;47.122;-1.638;2022-12-10T19:22:53;19.83;;;10.20;;
19609;SDS011;9952;47.122;-1.638;2022-12-10T19:27:34;20.57;;;10.60;;
19609;SDS011;9952;47.122;-1.638;2022-12-10T19:32:15;19.27;;;11.33;;
19609;SDS011;9952;47.122;-1.638;2022-12-10T19:36:56;20.47;;;11.83;;
19609;SDS011;9952;47.122;-1.638;2022-12-10T19:41:37;23.37;;;11.80;;
19609;SDS011;9952;47.122;-1.638;2022-12-10T19:46:19;23.93;;;12.33;;
19609;SDS011;9952;47.122;-1.638;2022-12-10T19:51:02;22.83;;;12.33;;
19609;SDS011;9952;47.122;-1.638;2022-12-10T19:55:42;22.47;;;11.40;;
19609;SDS011;9952;47.122;-1.638;2022-12-10T20:00:26;23.53;;;12.73;;
19609;SDS011;9952;47.122;-1.638;2022-12-10T20:05:09;27.43;;;13.17;;
19609;SDS011;9952;47.122;-1.638;2022-12-10T20:09:50;21.93;;;12.93;;
19609;SDS011;9952;47.122;-1.638;2022-12-10T20:14:31;23.47;;;12.67;;
19609;SDS011;9952;47.122;-1.638;2022-12-10T20:19:13;25.90;;;13.90;;
19609;SDS011;9952;47.122;-1.638;2022-12-10T20:23:54;26.53;;;14.63;;
19609;SDS011;9952;47.122;-1.638;2022-12-10T20:28:36;25.63;;;14.67;;
19609;SDS011;9952;47.122;-1.638;2022-12-10T20:33:17;29.03;;;14.93;;
19609;SDS011;9952;47.122;-1.638;2022-12-10T20:37:58;27.13;;;13.73;;
19609;SDS011;9952;47.122;-1.638;2022-12-10T20:42:39;29.00;;;15.70;;
19609;SDS011;9952;47.122;-1.638;2022-12-10T20:47:19;26.20;;;14.60;;
19609;SDS011;9952;47.122;-1.638;2022-12-10T20:52:00;26.40;;;15.37;;
19609;SDS011;9952;47.122;-1.638;2022-12-10T20:56:41;30.40;;;15.30;;
19609;SDS011;9952;47.122;-1.638;2022-12-10T21:01:22;26.60;;;14.90;;
19609;SDS011;9952;47.122;-1.638;2022-12-10T21:06:04;26.30;;;15.00;;
19609;SDS011;9952;47.122;-1.638;2022-12-10T21:10:46;31.53;;;15.63;;
19609;SDS011;9952;47.122;-1.638;2022-12-10T21:15:36;31.83;;;16.23;;
19609;SDS011;9952;47.122;-1.638;2022-12-10T21:20:17;30.27;;;16.13;;
19609;SDS011;9952;47.122;-1.638;2022-12-10T21:24:58;36.00;;;17.87;;
19609;SDS011;9952;47.122;-1.638;2022-12-10T21:29:38;32.30;;;16.77;;
19609;SDS011;9952;47.122;-1.638;2022-12-10T21:34:19;37.83;;;17.40;;
19609;SDS011;9952;47.122;-1.638;2022-12-10T21:39:02;33.47;;;17.43;;
19609;SDS011;9952;47.122;-1.638;2022-12-10T21:43:44;30.17;;;16.80;;
19609;SDS011;9952;47.122;-1.638;2022-12-10T21:48:25;32.27;;;16.73;;
19609;SDS011;9952;47.122;-1.638;2022-12-10T21:53:06;28.10;;;16.10;;
19609;SDS011;9952;47.122;-1.638;2022-12-10T21:57:48;40.37;;;17.53;;
19609;SDS011;9952;47.122;-1.638;2022-12-10T22:02:29;33.37;;;16.33;;
19609;SDS011;9952;47.122;-1.638;2022-12-10T22:07:10;34.80;;;16.80;;
19609;SDS011;9952;47.122;-1.638;2022-12-10T22:11:51;35.63;;;16.73;;
19609;SDS011;9952;47.122;-1.638;2022-12-10T22:16:31;33.43;;;17.37;;
19609;SDS011;9952;47.122;-1.638;2022-12-10T22:21:12;31.03;;;16.93;;
19609;SDS011;9952;47.122;-1.638;2022-12-10T22:25:54;35.70;;;16.13;;
19609;SDS011;9952;47.122;-1.638;2022-12-10T22:30:37;27.63;;;15.43;;
19609;SDS011;9952;47.122;-1.638;2022-12-10T22:35:19;32.10;;;15.30;;
19609;SDS011;9952;47.122;-1.638;2022-12-10T22:40:00;26.20;;;15.00;;
19609;SDS011;9952;47.122;-1.638;2022-12-10T22:44:44;32.60;;;15.97;;
19609;SDS011;9952;47.122;-1.638;2022-12-10T22:49:25;27.80;;;14.93;;
19609;SDS011;9952;47.122;-1.638;2022-12-10T22:54:05;25.77;;;13.57;;
19609;SDS011;9952;47.122;-1.638;2022-12-10T22:58:46;29.43;;;14.10;;
19609;SDS011;9952;47.122;-1.638;2022-12-10T23:03:31;29.97;;;13.80;;
19609;SDS011;9952;47.122;-1.638;2022-12-10T23:08:12;25.93;;;13.50;;
19609;SDS011;9952;47.122;-1.638;2022-12-10T23:12:53;26.90;;;13.77;;
19609;SDS011;9952;47.122;-1.638;2022-12-10T23:17:46;25.47;;;13.57;;
19609;SDS011;9952;47.122;-1.638;2022-12-10T23:22:27;27.70;;;14.53;;
19609;SDS011;9952;47.122;-1.638;2022-12-10T23:27:08;29.40;;;13.53;;
19609;SDS011;9952;47.122;-1.638;2022-12-10T23:31:49;24.60;;;12.87;;
19609;SDS011;9952;47.122;-1.638;2022-12-10T23:36:29;22.13;;;12.43;;
19609;SDS011;9952;47.122;-1.638;2022-12-10T23:41:11;23.83;;;11.83;;
19609;SDS011;9952;47.122;-1.638;2022-12-10T23:45:52;22.50;;;11.67;;
19609;SDS011;9952;47.122;-1.638;2022-12-10T23:50:32;23.67;;;11.67;;
19609;SDS011;9952;47.122;-1.638;2022-12-10T23:55:13;20.33;;;11.43;;
19609;SDS011;9952;47.122;-1.638;2022-12-10T23:59:54;24.00;;;11.63;;
